Dati Storici

Data ora Umidita' aria (%) Temperatura aria (°C) Rad globale (W/m²) Gonioanemometro (°) Tacoanemometro (m/s) Pioggia (mm)
20-06-2020 01:30 97.7 % 16.812 13.13 0.423 0 0
20-06-2020 01:20 97.7 % 16.857 84.039 0.3 0 0
20-06-2020 01:10 97.7 % 16.848 20.444 0.401 0 0
20-06-2020 01:00 97.7 % 16.822 41.851 1.315 0 0
20-06-2020 00:50 97.7 % 16.853 41.75 1.19 0 0
20-06-2020 00:40 97.7 % 16.819 12.592 2.103 0 0
20-06-2020 00:30 97.7 % 16.73 14.667 2.277 0 0
20-06-2020 00:20 97.7 % 16.634 14.941 1.7 0 0
20-06-2020 00:10 97.7 % 16.395 26.19 0.001 0 0
20-06-2020 00:00 97.7 % 16.333 310.064 0.003 0 0
19-06-2020 23:50 97.7 % 16.322 98.359 0.081 0 0
19-06-2020 23:40 97.6 % 16.248 18.24 0.002 0 0
19-06-2020 23:30 97.6 % 16.316 22.438 -0.001 0 0
19-06-2020 23:20 97.7 % 16.256 48.392 0 0 0
19-06-2020 23:10 97.7 % 16.247 32.273 0.845 0 0
19-06-2020 23:00 97.6 % 16.379 6.806 1.893 0 0
19-06-2020 22:50 97.6 % 16.427 44.246 1.923 0 0
19-06-2020 22:40 97.6 % 16.413 331.527 0.258 0 0
19-06-2020 22:30 97.6 % 16.499 16.928 0.696 0 0
19-06-2020 22:20 97.6 % 16.364 230.621 0.016 0 0

I dati sono presentati in modo automatico a scopo informativo. In seguito a verifica i dati possono subire modifiche o essere invalidati e non riportati negli archivi definitivi.